Time;durP1;ratioP1;P1;durP2;ratioP2;P2;SDS_P1;SDS_P2;PMS_P1;PMS_P2;Temp;Humidity;BMP_temperature;BMP_pressure;BME280_temperature;BME280_humidity;BME280_pressure;Samples;Min_cycle;Max_cycle;Signal;HPM_P1;HPM_P2
2024/02/10 00:00:19;;;;;;;6.93;6.27;;;7.10;99.90;;;;;;4969243;28;20754;-76
2024/02/10 00:02:48;;;;;;;7.07;5.30;;;7.10;99.90;;;;;;4957427;28;20567;-76
2024/02/10 00:05:15;;;;;;;6.93;5.80;;;7.10;99.90;;;;;;4961455;28;20207;-76
2024/02/10 00:07:45;;;;;;;6.40;5.57;;;7.10;99.90;;;;;;4961807;28;20210;-76
2024/02/10 00:10:12;;;;;;;6.33;5.83;;;7.10;99.90;;;;;;4960428;28;20952;-76
2024/02/10 00:12:40;;;;;;;6.60;5.57;;;7.20;99.90;;;;;;4958086;28;20228;-76
2024/02/10 00:15:08;;;;;;;5.53;5.00;;;7.20;99.90;;;;;;4966576;28;20210;-76
2024/02/10 00:17:35;;;;;;;5.73;4.90;;;7.20;99.90;;;;;;4970694;28;20590;-76
2024/02/10 00:20:05;;;;;;;5.87;5.33;;;7.20;99.90;;;;;;4970580;28;20203;-76
2024/02/10 00:22:32;;;;;;;5.77;5.27;;;7.20;99.90;;;;;;4970158;28;20234;-75
2024/02/10 00:24:58;;;;;;;6.20;5.60;;;7.30;99.90;;;;;;4970845;28;20297;-76
2024/02/10 00:27:25;;;;;;;5.93;5.20;;;7.20;99.90;;;;;;4967532;28;20651;-76
2024/02/10 00:29:52;;;;;;;6.40;5.70;;;7.20;99.90;;;;;;4951261;28;20297;-76
2024/02/10 00:32:21;;;;;;;7.43;5.53;;;7.20;99.90;;;;;;4960944;28;20214;-76
2024/02/10 00:34:48;;;;;;;6.23;5.30;;;7.20;99.90;;;;;;4970402;28;20301;-76
2024/02/10 00:37:17;;;;;;;5.73;5.13;;;7.30;99.90;;;;;;4970493;28;20206;-73
2024/02/10 00:39:45;;;;;;;6.03;4.73;;;7.30;99.90;;;;;;4970258;28;20261;-73
2024/02/10 00:42:13;;;;;;;6.43;5.30;;;7.30;99.90;;;;;;4970086;28;20217;-72
2024/02/10 00:44:40;;;;;;;9.20;5.30;;;7.30;99.90;;;;;;4970358;28;20234;-72
2024/02/10 00:47:12;;;;;;;7.23;5.10;;;7.30;99.90;;;;;;4970165;28;20246;-72
2024/02/10 00:49:40;;;;;;;6.83;5.30;;;7.30;99.90;;;;;;4970103;28;20219;-72
2024/02/10 00:52:09;;;;;;;6.17;5.67;;;7.30;99.90;;;;;;4969634;28;20391;-73
2024/02/10 00:54:37;;;;;;;5.57;5.00;;;7.30;99.90;;;;;;4970151;28;20225;-72
2024/02/10 00:57:10;;;;;;;5.80;5.23;;;7.30;99.90;;;;;;4970173;28;20250;-72
2024/02/10 00:59:40;;;;;;;5.03;4.63;;;7.30;99.90;;;;;;4963216;28;20196;-73
2024/02/10 01:02:08;;;;;;;5.63;4.80;;;7.30;99.90;;;;;;4950878;28;20204;-73
2024/02/10 01:04:35;;;;;;;5.30;4.80;;;7.30;99.90;;;;;;4950552;28;20593;-73
2024/02/10 01:07:02;;;;;;;6.27;4.70;;;7.20;99.90;;;;;;4955314;28;20298;-72
2024/02/10 01:09:29;;;;;;;5.27;4.73;;;7.30;99.90;;;;;;4969625;28;20646;-75
2024/02/10 01:11:58;;;;;;;12.00;5.40;;;7.30;99.90;;;;;;4968141;28;20214;-75
2024/02/10 01:14:29;;;;;;;7.50;5.50;;;7.30;99.90;;;;;;4969999;28;20583;-75
2024/02/10 01:16:57;;;;;;;6.23;4.90;;;7.30;99.90;;;;;;4970022;28;20206;-75
2024/02/10 01:19:25;;;;;;;8.07;5.30;;;7.30;99.90;;;;;;4969211;28;20293;-76
2024/02/10 01:21:54;;;;;;;5.57;4.93;;;7.30;99.90;;;;;;4969335;28;20702;-74
2024/02/10 01:24:22;;;;;;;5.70;5.13;;;7.30;99.90;;;;;;4970257;28;20265;-75
2024/02/10 01:26:49;;;;;;;7.23;5.27;;;7.30;99.90;;;;;;4969941;28;20211;-74
2024/02/10 01:29:18;;;;;;;8.90;5.40;;;7.40;99.90;;;;;;4969894;28;20210;-74
2024/02/10 01:31:46;;;;;;;7.90;5.70;;;7.40;99.90;;;;;;4969641;28;20297;-74
2024/02/10 01:34:15;;;;;;;6.10;5.60;;;7.40;99.90;;;;;;4969560;28;20234;-74
2024/02/10 01:36:42;;;;;;;7.07;5.10;;;7.40;99.90;;;;;;4950306;28;20207;-74
2024/02/10 01:39:10;;;;;;;7.27;5.60;;;7.40;99.90;;;;;;4950565;28;20243;-74
2024/02/10 01:41:38;;;;;;;6.00;5.50;;;7.40;99.90;;;;;;4950403;28;20227;-75
2024/02/10 01:44:06;;;;;;;5.63;5.20;;;7.40;99.90;;;;;;4950061;28;20631;-75
2024/02/10 01:46:34;;;;;;;5.60;5.10;;;7.40;99.90;;;;;;4949539;28;20214;-74
2024/02/10 01:49:02;;;;;;;8.67;5.33;;;7.40;99.90;;;;;;4948697;28;20295;-74
2024/02/10 01:51:30;;;;;;;5.13;4.73;;;7.40;99.90;;;;;;4948918;28;20244;-74
2024/02/10 01:53:58;;;;;;;5.00;4.60;;;7.40;99.90;;;;;;4959673;28;20297;-74
2024/02/10 01:56:29;;;;;;;5.80;5.30;;;7.40;99.90;;;;;;4968988;28;20322;-74
2024/02/10 01:58:57;;;;;;;5.60;5.03;;;7.40;99.90;;;;;;4969090;28;20623;-74
2024/02/10 02:01:24;;;;;;;5.97;5.00;;;7.40;99.90;;;;;;4968935;28;20690;-74
2024/02/10 02:03:53;;;;;;;7.13;4.87;;;7.30;99.90;;;;;;4968863;28;20281;-74
2024/02/10 02:06:20;;;;;;;5.60;5.00;;;7.40;99.90;;;;;;4968720;28;20211;-74
2024/02/10 02:08:49;;;;;;;5.33;4.80;;;7.40;99.90;;;;;;4968298;28;20712;-75
2024/02/10 02:11:16;;;;;;;6.40;5.07;;;7.40;99.90;;;;;;4968376;28;20234;-76
2024/02/10 02:13:43;;;;;;;5.47;4.97;;;7.50;99.90;;;;;;4952533;28;20238;-76
2024/02/10 02:16:12;;;;;;;5.23;4.73;;;7.40;99.90;;;;;;4968425;28;20218;-76
2024/02/10 02:18:39;;;;;;;5.33;4.83;;;7.40;99.90;;;;;;4955221;28;20251;-76
2024/02/10 02:21:07;;;;;;;5.80;4.80;;;7.50;99.90;;;;;;4949435;28;20655;-76
2024/02/10 02:23:36;;;;;;;5.07;4.57;;;7.50;99.90;;;;;;4964848;28;20273;-75
2024/02/10 02:26:03;;;;;;;4.97;4.37;;;7.50;99.90;;;;;;4968172;28;20207;-75
2024/02/10 02:28:30;;;;;;;8.77;5.10;;;7.50;99.90;;;;;;4968507;28;20314;-75
2024/02/10 02:30:56;;;;;;;6.93;4.57;;;7.60;99.90;;;;;;4954320;28;20326;-75
2024/02/10 02:33:23;;;;;;;6.07;4.00;;;7.60;99.90;;;;;;4949018;28;20207;-75
2024/02/10 02:35:53;;;;;;;8.70;4.43;;;7.60;99.90;;;;;;4949119;28;20226;-77
2024/02/10 02:38:23;;;;;;;6.00;4.27;;;7.60;99.90;;;;;;4948835;28;20210;-77
2024/02/10 02:40:51;;;;;;;5.60;4.53;;;7.60;99.90;;;;;;4948821;28;20686;-77
2024/02/10 02:43:18;;;;;;;4.57;4.17;;;7.60;99.90;;;;;;4949440;28;20738;-76
2024/02/10 02:45:45;;;;;;;7.07;4.73;;;7.60;99.90;;;;;;4948445;28;20774;-75
2024/02/10 02:48:11;;;;;;;5.43;4.40;;;7.60;99.90;;;;;;4948525;28;20697;-75
2024/02/10 02:50:40;;;;;;;4.77;4.30;;;7.70;99.90;;;;;;4948824;28;20235;-75
2024/02/10 02:53:07;;;;;;;4.83;4.43;;;7.60;99.90;;;;;;4951886;28;20651;-76
2024/02/10 02:55:34;;;;;;;5.43;4.93;;;7.60;99.90;;;;;;4968095;28;20238;-76
2024/02/10 02:58:06;;;;;;;5.90;4.67;;;7.70;99.90;;;;;;4967842;28;20245;-75
2024/02/10 03:00:33;;;;;;;5.57;4.80;;;7.60;99.90;;;;;;4967976;28;20199;-75
2024/02/10 03:03:03;;;;;;;5.30;4.80;;;7.70;99.90;;;;;;4967229;28;20759;-76
2024/02/10 03:05:30;;;;;;;4.73;4.33;;;7.60;99.90;;;;;;4967421;28;20258;-75
2024/02/10 03:07:57;;;;;;;6.13;4.50;;;7.60;99.90;;;;;;4953027;28;20203;-75
2024/02/10 03:10:24;;;;;;;5.43;4.93;;;7.60;99.90;;;;;;4958801;28;20757;-76
2024/02/10 03:12:51;;;;;;;4.80;4.30;;;7.70;99.90;;;;;;4971684;28;21041;-76
2024/02/10 03:15:19;;;;;;;5.90;4.90;;;7.70;99.90;;;;;;4971795;28;20822;-76
2024/02/10 03:17:49;;;;;;;5.33;4.70;;;7.60;99.90;;;;;;4971428;28;20226;-77
2024/02/10 03:20:21;;;;;;;5.27;4.70;;;7.70;99.90;;;;;;4952697;28;20210;-77
2024/02/10 03:22:58;;;;;;;5.03;4.30;;;7.60;99.90;;;;;;4952733;28;20247;-75
2024/02/10 03:25:26;;;;;;;5.63;4.47;;;7.60;99.90;;;;;;4971604;28;20882;-75
2024/02/10 03:27:53;;;;;;;5.73;4.70;;;7.70;99.90;;;;;;4971397;28;20215;-76
2024/02/10 03:30:24;;;;;;;4.67;4.27;;;7.60;99.90;;;;;;4966378;28;20273;-75
2024/02/10 03:32:53;;;;;;;4.43;4.03;;;7.70;99.90;;;;;;4951707;28;20940;-75
2024/02/10 03:35:20;;;;;;;5.83;4.07;;;7.60;99.90;;;;;;4952128;28;20226;-75
2024/02/10 03:37:47;;;;;;;7.60;4.43;;;7.70;99.90;;;;;;4951841;28;20663;-75
2024/02/10 03:40:18;;;;;;;5.77;4.27;;;7.70;99.90;;;;;;4952145;28;20688;-76
2024/02/10 03:42:46;;;;;;;4.30;3.90;;;7.70;99.90;;;;;;4952044;28;20199;-75
2024/02/10 03:45:14;;;;;;;6.60;4.30;;;7.70;99.90;;;;;;4952148;28;20212;-75
2024/02/10 03:47:44;;;;;;;4.77;4.33;;;7.70;99.90;;;;;;4952117;28;20207;-76
2024/02/10 03:50:11;;;;;;;4.17;3.87;;;7.80;99.90;;;;;;4951558;28;20218;-75
2024/02/10 03:52:38;;;;;;;5.10;4.17;;;7.80;99.90;;;;;;4951646;28;20212;-75
2024/02/10 03:55:08;;;;;;;3.97;3.60;;;7.80;99.90;;;;;;4971008;28;20310;-75
2024/02/10 03:57:35;;;;;;;6.40;3.73;;;7.70;99.90;;;;;;4971305;28;20203;-75
2024/02/10 04:00:07;;;;;;;4.73;4.23;;;7.80;99.90;;;;;;4970865;28;20242;-76
2024/02/10 04:02:35;;;;;;;4.53;4.13;;;7.80;99.90;;;;;;4970735;28;20999;-76
2024/02/10 04:05:07;;;;;;;4.07;3.67;;;7.80;99.90;;;;;;4971255;28;20214;-76
2024/02/10 04:07:35;;;;;;;6.03;3.87;;;7.80;99.90;;;;;;4974829;28;20318;-75
2024/02/10 04:10:02;;;;;;;4.50;4.00;;;7.90;99.90;;;;;;4990418;28;20573;-76
2024/02/10 04:12:30;;;;;;;5.33;3.90;;;7.90;99.90;;;;;;4990616;28;20265;-77
2024/02/10 04:14:58;;;;;;;6.83;3.90;;;7.80;99.90;;;;;;4990111;28;20214;-76
2024/02/10 04:17:25;;;;;;;6.07;3.63;;;7.80;99.90;;;;;;4990236;28;20244;-76
2024/02/10 04:19:57;;;;;;;4.10;3.47;;;7.90;99.90;;;;;;4979346;28;20238;-76
2024/02/10 04:22:25;;;;;;;5.77;3.70;;;7.90;99.90;;;;;;4970594;28;20422;-77
2024/02/10 04:24:53;;;;;;;4.67;3.50;;;7.90;99.90;;;;;;4970347;28;20310;-77
2024/02/10 04:27:20;;;;;;;3.97;3.67;;;8.00;99.90;;;;;;4961057;28;20302;-76
2024/02/10 04:29:47;;;;;;;4.07;3.70;;;8.00;99.90;;;;;;4951276;28;20290;-77
2024/02/10 04:32:14;;;;;;;4.20;3.80;;;8.00;99.90;;;;;;4951223;28;20271;-76
2024/02/10 04:34:43;;;;;;;4.30;3.90;;;8.00;99.90;;;;;;4951337;28;20222;-77
2024/02/10 04:37:10;;;;;;;3.73;3.43;;;7.90;99.90;;;;;;4951188;28;20218;-76
2024/02/10 04:39:40;;;;;;;4.20;3.73;;;8.00;99.90;;;;;;4951179;28;20297;-75
2024/02/10 04:42:07;;;;;;;4.90;4.03;;;8.00;99.90;;;;;;4950691;28;20219;-75
2024/02/10 04:44:34;;;;;;;3.90;3.60;;;8.00;99.90;;;;;;4951197;28;20314;-75
2024/02/10 04:47:01;;;;;;;4.30;3.90;;;7.90;99.90;;;;;;4959025;28;20209;-75
2024/02/10 04:49:28;;;;;;;4.40;4.00;;;8.00;99.90;;;;;;4970222;28;20305;-75
2024/02/10 04:51:54;;;;;;;11.30;4.00;;;8.00;99.90;;;;;;4969664;28;20337;-75
2024/02/10 04:54:21;;;;;;;8.20;3.97;;;8.10;99.90;;;;;;4969775;28;20310;-75
2024/02/10 04:56:49;;;;;;;4.20;3.50;;;8.00;99.90;;;;;;4970072;28;20713;-75
2024/02/10 04:59:26;;;;;;;4.37;3.97;;;8.10;99.90;;;;;;4958858;28;20322;-74
2024/02/10 05:01:52;;;;;;;4.43;3.83;;;8.10;99.90;;;;;;4950718;28;20228;-74
2024/02/10 05:04:19;;;;;;;4.63;4.33;;;8.10;99.90;;;;;;4967420;28;20242;-74
2024/02/10 05:06:47;;;;;;;4.60;4.23;;;8.20;99.90;;;;;;4969181;28;20765;-74
2024/02/10 05:09:14;;;;;;;4.27;3.80;;;8.20;99.90;;;;;;4969903;28;20298;-75
2024/02/10 05:11:42;;;;;;;4.30;4.00;;;8.20;99.90;;;;;;4954688;28;20262;-75
2024/02/10 05:14:10;;;;;;;4.67;4.30;;;8.20;99.90;;;;;;4950135;28;20723;-75
2024/02/10 05:16:37;;;;;;;5.10;4.07;;;8.30;99.90;;;;;;4950621;28;20259;-76
2024/02/10 05:19:04;;;;;;;4.50;4.10;;;8.30;99.90;;;;;;4950095;28;20318;-76
2024/02/10 05:21:32;;;;;;;5.50;4.50;;;8.20;99.90;;;;;;4949814;28;20237;-76
2024/02/10 05:24:07;;;;;;;5.93;4.20;;;8.20;99.90;;;;;;4966333;28;20293;-75
2024/02/10 05:26:36;;;;;;;4.80;4.37;;;8.20;99.90;;;;;;4969416;28;20222;-76
2024/02/10 05:29:06;;;;;;;5.17;4.67;;;8.20;99.90;;;;;;4968757;28;20262;-76
2024/02/10 05:31:36;;;;;;;6.43;4.33;;;8.20;99.90;;;;;;4969124;28;20222;-74
2024/02/10 05:34:03;;;;;;;4.80;4.40;;;8.10;99.90;;;;;;4968635;28;20207;-74
2024/02/10 05:36:30;;;;;;;8.00;4.63;;;8.20;99.90;;;;;;4969194;28;20261;-73
2024/02/10 05:38:57;;;;;;;4.60;4.20;;;8.10;99.90;;;;;;4969004;28;20207;-72
2024/02/10 05:41:24;;;;;;;5.87;4.83;;;8.20;99.90;;;;;;4968904;28;20654;-72
2024/02/10 05:43:53;;;;;;;5.43;4.93;;;8.20;99.90;;;;;;4968795;28;20303;-72
2024/02/10 05:46:20;;;;;;;5.13;4.73;;;8.20;99.90;;;;;;4966981;28;20269;-72
2024/02/10 05:48:50;;;;;;;4.80;4.40;;;8.20;99.90;;;;;;4949097;28;20303;-73
2024/02/10 05:51:17;;;;;;;6.70;5.00;;;8.10;99.90;;;;;;4949601;28;20597;-72
2024/02/10 05:53:46;;;;;;;7.50;4.87;;;8.20;99.90;;;;;;4963250;28;20814;-73
2024/02/10 05:56:15;;;;;;;5.73;4.57;;;8.20;99.90;;;;;;4968656;28;20215;-75
2024/02/10 05:58:42;;;;;;;4.80;4.30;;;8.10;99.90;;;;;;4967545;28;20253;-75
2024/02/10 06:01:10;;;;;;;4.60;4.20;;;8.10;99.90;;;;;;4968756;28;20222;-75
2024/02/10 06:03:37;;;;;;;5.50;4.70;;;8.10;99.90;;;;;;4968525;28;20598;-75
2024/02/10 06:06:08;;;;;;;5.97;4.43;;;8.10;99.90;;;;;;4968542;28;20317;-75
2024/02/10 06:08:35;;;;;;;4.90;4.50;;;8.20;99.90;;;;;;4968826;28;20195;-76
2024/02/10 06:11:02;;;;;;;5.17;4.73;;;8.20;99.90;;;;;;4968779;28;20607;-76
2024/02/10 06:13:32;;;;;;;5.70;5.10;;;8.30;99.90;;;;;;4968550;28;20265;-76
2024/02/10 06:15:58;;;;;;;7.03;5.63;;;8.60;99.90;;;;;;4968754;28;20238;-76
2024/02/10 06:18:29;;;;;;;5.83;5.17;;;8.80;99.90;;;;;;4948837;28;20217;-77
2024/02/10 06:20:57;;;;;;;6.20;4.47;;;8.90;99.90;;;;;;4949138;28;20247;-76
2024/02/10 06:23:26;;;;;;;5.30;4.57;;;8.80;99.90;;;;;;4954280;28;20242;-75
2024/02/10 06:25:54;;;;;;;4.93;4.40;;;8.80;99.90;;;;;;4968354;28;20693;-76
2024/02/10 06:28:21;;;;;;;4.90;4.50;;;8.70;99.90;;;;;;4968399;28;21019;-76
2024/02/10 06:30:49;;;;;;;6.20;4.50;;;8.50;99.90;;;;;;4968423;28;20250;-75
2024/02/10 06:33:16;;;;;;;4.23;3.80;;;8.50;99.90;;;;;;4950903;28;20214;-75
2024/02/10 06:35:47;;;;;;;3.93;3.67;;;8.40;99.90;;;;;;4956332;28;20286;-75
2024/02/10 06:38:15;;;;;;;4.27;3.83;;;8.40;99.90;;;;;;4968174;28;20225;-76
2024/02/10 06:40:43;;;;;;;4.57;3.73;;;8.40;99.90;;;;;;4967511;28;20209;-76
2024/02/10 06:43:12;;;;;;;5.77;4.43;;;8.40;99.90;;;;;;4968203;28;20222;-76
2024/02/10 06:45:39;;;;;;;3.50;3.30;;;8.40;99.90;;;;;;4968187;28;20214;-75
2024/02/10 06:48:07;;;;;;;3.60;3.40;;;8.40;99.90;;;;;;4959101;28;20310;-76
2024/02/10 06:50:36;;;;;;;3.70;3.40;;;8.40;99.90;;;;;;4967543;28;20240;-76
2024/02/10 06:53:04;;;;;;;3.50;3.30;;;8.40;99.90;;;;;;4967987;28;20238;-75
2024/02/10 06:55:31;;;;;;;4.13;3.83;;;8.50;99.90;;;;;;4967999;28;20251;-76
2024/02/10 06:58:02;;;;;;;3.83;3.53;;;8.40;99.90;;;;;;4986030;28;20210;-76
2024/02/10 07:00:37;;;;;;;4.57;3.50;;;8.40;99.90;;;;;;4971811;28;20199;-76
2024/02/10 07:03:05;;;;;;;4.00;3.60;;;8.30;99.90;;;;;;4948658;28;20237;-76
2024/02/10 07:05:33;;;;;;;4.20;3.33;;;8.30;99.90;;;;;;4948565;28;20254;-76
2024/02/10 07:08:00;;;;;;;3.90;3.57;;;8.40;99.90;;;;;;4948514;28;20619;-76
2024/02/10 07:10:27;;;;;;;4.63;3.87;;;8.30;99.90;;;;;;4948853;28;20302;-75
2024/02/10 07:12:55;;;;;;;3.73;3.33;;;8.40;99.90;;;;;;4965075;28;20324;-76
2024/02/10 07:15:24;;;;;;;3.70;3.40;;;8.40;99.90;;;;;;4968487;28;20210;-76
2024/02/10 07:17:53;;;;;;;4.80;3.80;;;8.40;99.90;;;;;;4967841;28;20720;-76
2024/02/10 07:20:21;;;;;;;4.40;4.00;;;8.40;99.90;;;;;;4968067;28;20298;-76
2024/02/10 07:22:50;;;;;;;4.37;3.90;;;8.40;99.90;;;;;;4966945;28;20274;-76
2024/02/10 07:25:17;;;;;;;4.10;3.80;;;8.40;99.90;;;;;;4964930;28;20209;-76
2024/02/10 07:27:46;;;;;;;4.10;3.80;;;8.40;99.90;;;;;;4958849;28;20242;-74
2024/02/10 07:30:14;;;;;;;4.10;3.80;;;8.40;99.90;;;;;;4957976;28;20203;-74
2024/02/10 07:32:44;;;;;;;4.10;3.80;;;8.40;99.90;;;;;;4955845;28;20223;-74
2024/02/10 07:35:12;;;;;;;4.00;3.57;;;8.50;99.90;;;;;;4956453;28;20203;-73
2024/02/10 07:37:39;;;;;;;4.30;3.50;;;8.50;99.90;;;;;;4952832;28;20203;-73
2024/02/10 07:40:11;;;;;;;4.23;3.83;;;8.50;99.90;;;;;;4962008;28;20213;-73
2024/02/10 07:42:37;;;;;;;3.70;3.40;;;8.40;99.90;;;;;;4967645;28;20207;-73
2024/02/10 07:45:05;;;;;;;3.80;3.60;;;8.50;99.90;;;;;;4967128;28;20625;-73
2024/02/10 07:47:32;;;;;;;4.47;3.47;;;8.40;99.90;;;;;;4961840;28;20243;-73
2024/02/10 07:50:00;;;;;;;3.90;3.60;;;8.50;99.90;;;;;;4947907;29;20204;-74
2024/02/10 07:52:28;;;;;;;5.10;4.00;;;8.50;99.90;;;;;;4962225;28;20317;-74
2024/02/10 07:54:56;;;;;;;3.27;3.03;;;8.50;99.90;;;;;;4970425;28;20219;-73
2024/02/10 07:57:24;;;;;;;4.17;3.17;;;8.50;99.90;;;;;;4970646;28;20753;-72
2024/02/10 07:59:53;;;;;;;3.30;3.00;;;8.60;99.90;;;;;;4970038;28;20293;-73
2024/02/10 08:02:23;;;;;;;3.13;2.93;;;8.50;99.90;;;;;;4970873;28;20318;-74
2024/02/10 08:04:51;;;;;;;3.33;3.00;;;8.60;99.90;;;;;;4970676;28;20705;-74
2024/02/10 08:07:20;;;;;;;3.97;2.90;;;8.60;99.90;;;;;;4970787;28;20310;-74
2024/02/10 08:09:47;;;;;;;2.83;2.63;;;8.70;99.90;;;;;;4970533;28;20211;-74
2024/02/10 08:12:20;;;;;;;4.17;2.77;;;8.60;99.90;;;;;;4970483;28;20317;-73
2024/02/10 08:14:50;;;;;;;5.83;3.23;;;8.70;99.90;;;;;;4971006;28;20586;-73
2024/02/10 08:17:17;;;;;;;3.10;2.90;;;8.70;99.90;;;;;;4970306;28;20616;-73
2024/02/10 08:19:44;;;;;;;4.23;3.17;;;8.80;99.90;;;;;;4970630;28;20292;-73
2024/02/10 08:22:11;;;;;;;3.20;2.93;;;8.70;99.90;;;;;;4970221;28;20239;-74
2024/02/10 08:24:39;;;;;;;4.23;2.80;;;8.80;99.90;;;;;;4954744;28;20203;-74
2024/02/10 08:27:08;;;;;;;3.07;2.87;;;8.70;99.90;;;;;;4950988;28;21274;-73
2024/02/10 08:29:35;;;;;;;3.57;3.33;;;8.80;99.90;;;;;;4951066;28;20215;-74
2024/02/10 08:32:02;;;;;;;3.00;2.80;;;8.90;99.90;;;;;;4959174;28;20781;-73
2024/02/10 08:34:31;;;;;;;3.40;3.10;;;8.80;99.90;;;;;;4970031;28;20755;-73
2024/02/10 08:36:58;;;;;;;3.00;2.80;;;9.00;99.90;;;;;;4969640;28;20213;-74
2024/02/10 08:39:25;;;;;;;3.50;3.07;;;8.90;99.90;;;;;;4970001;28;20306;-74
2024/02/10 08:41:53;;;;;;;4.47;3.20;;;8.90;99.90;;;;;;4969369;28;20329;-74
2024/02/10 08:44:21;;;;;;;3.30;2.80;;;9.00;99.90;;;;;;4969878;28;20206;-73
2024/02/10 08:46:50;;;;;;;2.87;2.67;;;8.90;99.90;;;;;;4969548;28;20301;-74
2024/02/10 08:49:17;;;;;;;3.30;3.07;;;8.90;99.90;;;;;;4969446;28;20245;-74
2024/02/10 08:51:49;;;;;;;3.13;2.83;;;9.00;99.90;;;;;;4969831;28;20218;-74
2024/02/10 08:54:16;;;;;;;5.57;3.10;;;9.00;99.90;;;;;;4957495;28;20721;-73
2024/02/10 08:56:43;;;;;;;3.23;2.93;;;9.00;99.90;;;;;;4950398;28;20310;-73
2024/02/10 08:59:12;;;;;;;3.40;3.20;;;9.00;99.90;;;;;;4950479;28;20241;-73
2024/02/10 09:01:41;;;;;;;3.40;3.00;;;9.10;99.90;;;;;;4950547;28;20258;-73
2024/02/10 09:04:08;;;;;;;3.27;2.97;;;9.10;99.90;;;;;;4949353;28;20266;-73
2024/02/10 09:06:35;;;;;;;3.90;3.00;;;9.20;99.90;;;;;;4964675;28;20239;-74
2024/02/10 09:09:03;;;;;;;5.43;2.77;;;9.20;99.90;;;;;;4969625;28;20543;-74
2024/02/10 09:11:41;;;;;;;2.63;2.27;;;9.20;99.90;;;;;;4967041;28;20688;-73
2024/02/10 09:14:08;;;;;;;2.90;2.70;;;9.30;99.90;;;;;;4969839;28;20229;-74
2024/02/10 09:16:36;;;;;;;3.23;2.50;;;9.30;99.90;;;;;;4969319;28;20211;-74
2024/02/10 09:19:03;;;;;;;2.83;2.63;;;9.30;99.90;;;;;;4969254;28;20430;-74
2024/02/10 09:21:30;;;;;;;3.23;2.90;;;9.40;99.90;;;;;;4968466;28;20682;-74
2024/02/10 09:23:58;;;;;;;3.37;3.07;;;9.50;99.90;;;;;;4968940;28;20243;-74
2024/02/10 09:26:26;;;;;;;2.80;2.60;;;9.50;99.90;;;;;;4969234;28;20317;-74
2024/02/10 09:28:52;;;;;;;2.70;2.50;;;9.50;99.90;;;;;;4969278;28;20250;-73
2024/02/10 09:31:23;;;;;;;2.87;2.67;;;9.60;99.90;;;;;;4969319;28;20301;-74
2024/02/10 09:33:51;;;;;;;3.40;3.20;;;9.50;99.90;;;;;;4965457;28;20223;-74
2024/02/10 09:36:18;;;;;;;3.10;2.50;;;9.70;99.90;;;;;;4949675;29;20813;-77
2024/02/10 09:38:45;;;;;;;3.10;2.80;;;9.70;99.90;;;;;;4963268;28;20289;-78
2024/02/10 09:41:13;;;;;;;2.60;2.40;;;9.80;99.90;;;;;;4957446;28;20211;-78
2024/02/10 09:43:42;;;;;;;3.70;2.80;;;9.70;99.90;;;;;;4959647;28;20656;-77
2024/02/10 09:46:12;;;;;;;2.90;2.70;;;9.70;99.90;;;;;;4968246;28;20294;-77
2024/02/10 09:48:44;;;;;;;2.60;2.40;;;9.70;99.90;;;;;;4957336;28;20203;-75
2024/02/10 09:51:13;;;;;;;2.90;2.70;;;9.70;99.90;;;;;;4965148;28;20211;-76
2024/02/10 09:53:41;;;;;;;3.87;2.60;;;9.80;99.90;;;;;;4959846;28;20325;-78
2024/02/10 09:56:12;;;;;;;3.80;2.63;;;9.70;99.90;;;;;;4955730;28;20291;-76
2024/02/10 09:58:41;;;;;;;3.20;2.90;;;9.70;99.90;;;;;;4949697;28;20211;-75
2024/02/10 10:01:10;;;;;;;5.83;3.13;;;9.80;99.90;;;;;;4949257;28;20204;-75
2024/02/10 10:03:38;;;;;;;2.90;2.70;;;9.80;99.90;;;;;;4949087;28;20269;-76
2024/02/10 10:06:09;;;;;;;3.03;2.83;;;9.70;99.90;;;;;;4960047;28;20221;-75
2024/02/10 10:08:38;;;;;;;2.60;2.47;;;9.80;99.90;;;;;;4966600;28;20205;-75
2024/02/10 10:11:06;;;;;;;2.83;2.50;;;9.80;99.90;;;;;;4966516;28;20262;-75
2024/02/10 10:13:34;;;;;;;2.80;2.57;;;9.70;99.90;;;;;;4966747;28;20238;-75
2024/02/10 10:16:05;;;;;;;3.43;2.63;;;9.80;99.90;;;;;;4961765;28;20214;-75
2024/02/10 10:18:34;;;;;;;3.73;2.63;;;9.80;99.90;;;;;;4947760;28;20663;-75
2024/02/10 10:21:04;;;;;;;3.17;2.43;;;9.80;99.90;;;;;;4966121;28;20234;-75
2024/02/10 10:23:31;;;;;;;4.17;2.70;;;9.80;99.90;;;;;;4965918;28;20297;-75
2024/02/10 10:25:59;;;;;;;2.70;2.50;;;9.80;99.90;;;;;;4966616;28;20249;-75
2024/02/10 10:28:26;;;;;;;2.63;2.47;;;9.90;99.90;;;;;;4965563;28;20661;-75
2024/02/10 10:30:56;;;;;;;2.80;2.60;;;10.00;99.90;;;;;;4966426;28;20214;-75
2024/02/10 10:33:25;;;;;;;2.87;2.60;;;9.90;99.90;;;;;;4966600;28;20245;-76
2024/02/10 10:35:54;;;;;;;4.77;2.87;;;9.90;99.90;;;;;;4966216;28;20269;-75
2024/02/10 10:38:22;;;;;;;2.93;2.67;;;9.90;99.90;;;;;;4952054;28;20207;-75
2024/02/10 10:40:51;;;;;;;3.30;2.40;;;10.00;99.90;;;;;;4965513;28;20696;-75
2024/02/10 10:43:21;;;;;;;3.13;2.10;;;10.00;99.90;;;;;;4966448;28;20211;-75
2024/02/10 10:45:48;;;;;;;2.60;2.40;;;10.10;99.90;;;;;;4966475;28;20210;-75
2024/02/10 10:48:15;;;;;;;3.03;2.13;;;10.00;99.90;;;;;;4966922;28;20294;-75
2024/02/10 10:50:42;;;;;;;2.93;2.20;;;10.10;99.90;;;;;;4958160;28;20290;-75
2024/02/10 10:53:10;;;;;;;3.13;2.30;;;10.10;99.90;;;;;;4950070;28;20309;-75
2024/02/10 10:55:42;;;;;;;2.20;2.10;;;10.20;99.90;;;;;;4966216;28;20207;-75
2024/02/10 10:58:12;;;;;;;2.30;2.20;;;10.10;99.90;;;;;;4966214;28;20907;-75
2024/02/10 11:00:43;;;;;;;2.47;2.20;;;10.10;99.90;;;;;;4966079;28;20210;-75
2024/02/10 11:03:10;;;;;;;2.90;2.57;;;10.20;99.90;;;;;;4965554;28;20230;-75
2024/02/10 11:05:41;;;;;;;2.37;2.20;;;10.20;99.90;;;;;;4957015;28;20853;-75
2024/02/10 11:08:13;;;;;;;2.33;2.13;;;10.10;99.90;;;;;;4946717;29;20223;-75
2024/02/10 11:10:44;;;;;;;2.13;2.03;;;10.20;99.90;;;;;;4949020;28;20234;-75
2024/02/10 11:13:19;;;;;;;2.53;2.30;;;10.20;99.90;;;;;;4946694;28;20226;-75
2024/02/10 11:15:48;;;;;;;2.63;2.43;;;10.20;99.90;;;;;;4957405;28;20206;-75
2024/02/10 11:18:17;;;;;;;2.57;2.30;;;10.30;99.90;;;;;;4954485;28;20294;-75
2024/02/10 11:20:44;;;;;;;2.20;2.10;;;10.30;99.90;;;;;;4952662;28;20203;-75
2024/02/10 11:23:13;;;;;;;2.33;2.13;;;10.30;99.90;;;;;;4959124;28;20776;-75
2024/02/10 11:25:41;;;;;;;2.03;1.93;;;10.30;99.90;;;;;;4957751;28;20210;-75
2024/02/10 11:28:09;;;;;;;2.00;1.90;;;10.40;99.90;;;;;;4957648;28;20908;-76
2024/02/10 11:30:35;;;;;;;2.20;2.10;;;10.40;99.90;;;;;;4966496;28;20743;-75
2024/02/10 11:33:05;;;;;;;3.17;2.30;;;10.40;99.90;;;;;;4955857;28;20267;-75
2024/02/10 11:35:32;;;;;;;2.57;2.37;;;10.30;99.90;;;;;;4957907;28;20283;-76
2024/02/10 11:38:05;;;;;;;2.93;2.00;;;10.30;99.90;;;;;;4962249;28;20654;-75
2024/02/10 11:40:33;;;;;;;2.30;2.20;;;10.40;99.90;;;;;;4960491;28;20741;-75
2024/02/10 11:43:01;;;;;;;2.77;2.17;;;10.30;99.90;;;;;;4956346;28;20302;-76
2024/02/10 11:45:28;;;;;;;2.30;2.20;;;10.40;99.90;;;;;;4956703;28;20290;-76
2024/02/10 11:47:55;;;;;;;2.23;2.13;;;10.40;99.90;;;;;;4963160;28;20231;-76
2024/02/10 11:50:24;;;;;;;2.87;2.10;;;10.50;99.90;;;;;;4954891;28;20709;-76
2024/02/10 11:52:52;;;;;;;2.77;2.03;;;10.60;99.90;;;;;;4961902;28;20852;-76
2024/02/10 11:55:20;;;;;;;2.00;1.90;;;10.70;99.90;;;;;;4969093;28;20955;-76
2024/02/10 11:57:48;;;;;;;2.43;2.33;;;10.70;99.90;;;;;;4968528;28;20658;-76
2024/02/10 12:00:19;;;;;;;2.13;2.00;;;10.90;99.90;;;;;;4969096;28;20314;-76
2024/02/10 12:02:51;;;;;;;2.27;2.17;;;10.90;99.90;;;;;;4969289;28;20290;-76
2024/02/10 12:05:20;;;;;;;2.13;2.03;;;10.90;99.90;;;;;;4969301;28;20227;-75
2024/02/10 12:07:48;;;;;;;2.30;2.10;;;10.90;99.90;;;;;;4969144;28;20258;-73
2024/02/10 12:10:16;;;;;;;2.23;2.03;;;10.90;99.90;;;;;;4968719;28;20706;-74
2024/02/10 12:12:42;;;;;;;2.23;2.13;;;11.00;99.90;;;;;;4969131;28;20261;-73
2024/02/10 12:15:12;;;;;;;2.40;2.20;;;11.00;99.90;;;;;;4969005;28;20637;-73
2024/02/10 12:17:39;;;;;;;2.00;1.90;;;11.10;99.90;;;;;;4968559;28;20278;-73
2024/02/10 12:20:12;;;;;;;2.20;2.00;;;11.10;99.90;;;;;;4968274;28;20299;-74
2024/02/10 12:22:39;;;;;;;2.13;2.03;;;11.20;99.90;;;;;;4968477;28;20721;-73
2024/02/10 12:25:08;;;;;;;1.97;1.87;;;11.20;99.90;;;;;;4949448;28;20219;-74
2024/02/10 12:27:36;;;;;;;2.17;1.80;;;11.20;99.90;;;;;;4949375;29;20215;-76
2024/02/10 12:30:04;;;;;;;2.30;2.10;;;11.20;99.90;;;;;;4949185;29;20215;-76
2024/02/10 12:32:34;;;;;;;3.13;2.07;;;11.30;99.90;;;;;;4950780;28;20686;-76
2024/02/10 12:35:06;;;;;;;2.10;2.00;;;11.30;99.90;;;;;;4967070;28;20222;-75
2024/02/10 12:37:33;;;;;;;1.87;1.77;;;11.40;99.90;;;;;;4968045;28;20203;-75
2024/02/10 12:40:00;;;;;;;2.00;1.90;;;11.40;99.90;;;;;;4960107;28;20295;-76
2024/02/10 12:42:30;;;;;;;1.87;1.73;;;11.50;99.90;;;;;;4967603;28;20219;-76
2024/02/10 12:44:56;;;;;;;1.90;1.80;;;11.60;99.90;;;;;;4967348;28;20210;-76
2024/02/10 12:47:23;;;;;;;1.90;1.80;;;11.70;99.90;;;;;;4968322;28;20293;-76
2024/02/10 12:49:51;;;;;;;3.67;2.37;;;11.90;99.90;;;;;;4968412;28;20801;-75
2024/02/10 12:52:19;;;;;;;2.30;1.80;;;12.00;99.90;;;;;;4968451;28;20876;-74
2024/02/10 12:54:46;;;;;;;2.10;1.90;;;12.30;99.90;;;;;;4963019;28;20243;-74
2024/02/10 12:57:16;;;;;;;1.90;1.80;;;12.60;99.90;;;;;;4967409;28;20214;-74
2024/02/10 12:59:44;;;;;;;1.80;1.70;;;12.80;99.90;;;;;;4968221;28;20217;-74